Main page
METAR-TAF:

METAR-TAF

Airports :

Carcassonne, France

Carcassonne Airport

latitude: 43-13N, longitude: 002-19E, elevation: 130 m

Current weather observation

The report was made 10 minutes ago, at 02:00 UTC
Wind 12 kt from the East
Temperature 17°C
Humidity 72%
Pressure 1014 hPa
Visibility 10 km or more
no clouds below 1500 m and no cumulonimbus

METAR: LFMK 290200Z AUTO 10012KT CAVOK 17/12 Q1014

Time: 04:10 (02:10 UTC)

Forecast

The report was made 12 hours and 10 minutes ago, at 14:00 UTC
Forecast valid from 28 at 15 UTC to 29 at 15 UTC
Wind 20 kt from the East
Visibility 10 km or more
no clouds below 1500 m and no cumulonimbus
Temporary
from 28 at 15 UTC to 28 at 20 UTC
Wind 20 kt from the East with gusts up to 30 kt
Becoming
from 29 at 03 UTC to 29 at 05 UTC
Wind 10 kt from the East
Temporary
from 29 at 03 UTC to 29 at 09 UTC
Broken clouds at a height of 1000 ft

TAF: LFMK 281400Z 2815/2915 10020KT CAVOK TEMPO 2815/2820 09020G30KT BECMG 2903/2905 09010KT TEMPO 2903/2909 BKN010

Weather observations and forecasts of more than 4000 airports (METAR and TAF reports).

The available stations are represented by yellow and red dots on the map.

Hover mouse over dot to see the name of the station.

Then click to see weather observations and forecasts.

To change the map : click on the green buttons with a black cross to zoom in, on the green button with a dash to zoom out, or on the green arrows for adjacent maps.


METAR-TAF: